Macksburg, Iowa
Current Conditions -  °F | °C
As of 1:35 PM on Thursday 23 Oct 2014 (Local Time) from KCSQ Reporting Station
Scattered Clouds Scattered Clouds  
Wind Chill: 66°   Ceiling: Unl
Heat Index: 66°   Visibility: 9mi
Dew Point: 57°   Wind: 8mph
Humidity: 73%   Direction: 260°W
Pressure: 30.05"   Gusts: NA
Location:  41.21°N, 94.19°W
Report Text: KCSQ 231835Z AUTO 26007KT 9SM SCT024 19/14 A3005 RMK AO2
Loading
Personal Weather Stations






























Interactive Weather Map
Tropical Storm Tracking
New forecast layout! Learn more

10-Day Weather Forecast

Advertisements
Track Severe Weather on mobile